Time;durP1;ratioP1;P1;durP2;ratioP2;P2;SDS_P1;SDS_P2;PMS_P1;PMS_P2;Temp;Humidity;BMP_temperature;BMP_pressure;BME280_temperature;BME280_humidity;BME280_pressure;Samples;Min_cycle;Max_cycle;Signal;HPM_P1;HPM_P2
2024/01/22 00:01:08;;;;;;;0.40;0.30;;;;;;;1.37;62.40;96940.78;5091678;28;20437;-57
2024/01/22 00:03:36;;;;;;;0.50;0.30;;;;;;;1.06;62.02;96944.16;5078013;28;20436;-56
2024/01/22 00:06:05;;;;;;;0.30;0.20;;;;;;;1.18;61.19;96932.38;5079247;28;20524;-57
2024/01/22 00:08:34;;;;;;;1.23;0.57;;;;;;;1.43;60.33;96938.28;5090861;28;20435;-57
2024/01/22 00:11:03;;;;;;;0.30;0.20;;;;;;;1.44;61.48;96932.06;5091365;28;20436;-56
2024/01/22 00:13:33;;;;;;;0.93;0.50;;;;;;;1.68;63.55;96928.47;5065303;28;20945;-57
2024/01/22 00:16:02;;;;;;;0.30;0.20;;;;;;;1.76;63.11;96934.47;5090987;28;20475;-56
2024/01/22 00:18:31;;;;;;;1.07;0.27;;;;;;;1.51;61.76;96919.13;5090913;28;20443;-56
2024/01/22 00:20:59;;;;;;;0.93;0.93;;;;;;;1.63;60.69;96944.69;5091559;28;20839;-56
2024/01/22 00:23:28;;;;;;;0.70;0.70;;;;;;;1.69;60.85;96948.41;5090993;28;20904;-55
2024/01/22 00:25:57;;;;;;;0.30;0.20;;;;;;;1.36;61.39;96946.97;5091612;28;20435;-56
2024/01/22 00:28:26;;;;;;;0.63;0.40;;;;;;;1.63;64.19;96949.91;5091711;28;20428;-56
2024/01/22 00:30:56;;;;;;;0.30;0.30;;;;;;;1.50;61.19;96930.53;5090795;28;20447;-56
2024/01/22 00:33:24;;;;;;;0.30;0.20;;;;;;;1.72;61.74;96958.50;5090605;28;20861;-56
2024/01/22 00:35:53;;;;;;;0.30;0.20;;;;;;;1.48;60.49;96963.88;5086898;28;20484;-56
2024/01/22 00:38:22;;;;;;;0.50;0.30;;;;;;;1.47;59.85;96962.28;5082472;28;20464;-56
2024/01/22 00:40:50;;;;;;;1.60;0.40;;;;;;;1.38;60.12;96952.81;5091957;28;20444;-56
2024/01/22 00:43:19;;;;;;;0.30;0.20;;;;;;;0.51;60.11;96810.34;5095382;28;20444;-56
2024/01/22 00:45:47;;;;;;;0.30;0.20;;;;;;;1.50;59.66;96965.31;5094615;28;20448;-56
2024/01/22 00:48:17;;;;;;;0.37;0.37;;;;;;;1.46;58.58;96955.41;5095055;28;20490;-56
2024/01/22 00:50:46;;;;;;;1.80;0.40;;;;;;;1.49;58.97;96957.69;5094927;28;20518;-56
2024/01/22 00:53:15;;;;;;;0.50;0.30;;;;;;;1.13;61.06;96960.81;5094201;28;20537;-55
2024/01/22 00:55:43;;;;;;;0.30;0.20;;;;;;;1.15;60.72;96961.44;5095058;28;20926;-56
2024/01/22 00:58:12;;;;;;;0.90;0.67;;;;;;;1.32;63.71;96953.53;5094713;28;20471;-56
2024/01/22 01:00:41;;;;;;;0.63;0.63;;;;;;;1.45;65.24;96940.69;5094735;28;20444;-57
2024/01/22 01:03:09;;;;;;;0.30;0.20;;;;;;;1.48;64.98;96956.84;5094476;28;20535;-56
2024/01/22 01:05:39;;;;;;;0.40;0.37;;;;;;;1.49;66.27;96958.50;5094639;28;20773;-57
2024/01/22 01:08:08;;;;;;;0.20;0.20;;;;;;;1.44;64.56;96947.75;5094600;28;20519;-57
2024/01/22 01:10:37;;;;;;;0.40;0.30;;;;;;;0.86;62.45;96948.16;5094576;28;20495;-57
2024/01/22 01:13:05;;;;;;;0.30;0.20;;;;;;;1.26;66.98;96944.59;5094006;28;20433;-55
2024/01/22 01:15:34;;;;;;;0.40;0.30;;;;;;;1.14;63.42;96940.69;5094571;28;20495;-56
2024/01/22 01:18:03;;;;;;;0.30;0.20;;;;;;;1.19;63.53;96936.59;5094473;28;20488;-56
2024/01/22 01:20:33;;;;;;;0.30;0.20;;;;;;;1.14;65.68;96945.94;5094304;28;20451;-56
2024/01/22 01:23:04;;;;;;;0.30;0.30;;;;;;;0.59;63.42;96953.81;5094017;28;20784;-56
2024/01/22 01:25:33;;;;;;;0.30;0.20;;;;;;;0.37;62.40;96950.13;5093331;28;20436;-55
2024/01/22 01:28:02;;;;;;;0.30;0.30;;;;;;;0.24;63.33;96954.19;5094301;28;20562;-57
2024/01/22 01:30:31;;;;;;;2.00;0.87;;;;;;;0.55;64.16;96948.13;5093825;28;20437;-56
2024/01/22 01:32:59;;;;;;;0.50;0.47;;;;;;;0.39;61.67;96949.94;5093538;28;20436;-56
2024/01/22 01:35:28;;;;;;;1.03;1.03;;;;;;;0.72;61.63;96951.50;5093290;28;20496;-56
2024/01/22 01:37:57;;;;;;;0.40;0.30;;;;;;;0.23;62.89;96895.22;5093606;28;20475;-56
2024/01/22 01:40:27;;;;;;;1.90;0.30;;;;;;;-0.10;63.58;96956.97;5093182;28;20466;-56
2024/01/22 01:42:56;;;;;;;6.90;0.30;;;;;;;0.07;63.88;96952.59;5094040;28;20467;-56
2024/01/22 01:45:24;;;;;;;0.43;0.43;;;;;;;-0.21;63.57;96954.72;5093031;28;20451;-57
2024/01/22 01:47:53;;;;;;;0.40;0.40;;;;;;;0.30;66.81;96940.53;5093350;28;20450;-56
2024/01/22 01:50:22;;;;;;;0.40;0.27;;;;;;;0.55;63.27;96948.13;5093135;28;20487;-56
2024/01/22 01:52:53;;;;;;;1.70;0.50;;;;;;;0.91;66.43;96950.28;5092698;28;20436;-56
2024/01/22 01:55:22;;;;;;;0.50;0.50;;;;;;;0.59;62.35;96870.31;5093604;28;20443;-57
2024/01/22 01:57:52;;;;;;;0.37;0.20;;;;;;;0.61;61.29;96890.03;5093307;28;20468;-57
2024/01/22 02:00:31;;;;;;;4.23;0.50;;;;;;;0.42;61.94;96900.88;5093264;28;20432;-56
2024/01/22 02:02:59;;;;;;;0.20;0.20;;;;;;;0.75;60.01;96932.91;5093264;28;20452;-56
2024/01/22 02:05:28;;;;;;;0.40;0.30;;;;;;;0.89;60.07;96953.06;5093089;28;20436;-56
2024/01/22 02:07:57;;;;;;;0.30;0.20;;;;;;;1.11;60.07;96949.69;5092984;28;20435;-56
2024/01/22 02:10:26;;;;;;;1.33;0.27;;;;;;;1.29;60.17;96949.47;5067508;28;20456;-56
2024/01/22 02:12:56;;;;;;;3.60;0.47;;;;;;;0.63;58.33;96871.63;5092032;28;20531;-55
2024/01/22 02:15:25;;;;;;;0.30;0.20;;;;;;;0.42;59.52;96937.41;5093045;28;20440;-56
2024/01/22 02:17:53;;;;;;;0.23;0.20;;;;;;;0.78;60.59;96948.22;5091294;28;20506;-56
2024/01/22 02:20:22;;;;;;;0.27;0.20;;;;;;;0.90;60.31;96954.69;5082413;28;20452;-56
2024/01/22 02:22:51;;;;;;;0.30;0.20;;;;;;;0.74;59.25;96948.69;5092496;28;20991;-57
2024/01/22 02:25:21;;;;;;;0.30;0.30;;;;;;;0.71;59.71;96947.25;5093536;28;20437;-56
2024/01/22 02:27:50;;;;;;;0.20;0.10;;;;;;;0.68;60.38;96945.00;5092953;28;20838;-56
2024/01/22 02:30:18;;;;;;;0.30;0.20;;;;;;;0.55;63.14;96897.75;5093160;28;20437;-57
2024/01/22 02:32:47;;;;;;;0.20;0.10;;;;;;;1.00;66.97;96937.03;5092899;28;20436;-56
2024/01/22 02:35:17;;;;;;;0.80;0.23;;;;;;;0.27;64.34;96948.66;5092752;28;20523;-57
2024/01/22 02:37:46;;;;;;;0.87;0.87;;;;;;;0.09;62.11;96946.25;5092256;28;20476;-56
2024/01/22 02:40:15;;;;;;;0.40;0.30;;;;;;;0.16;61.72;96943.78;5092706;28;20444;-56
2024/01/22 02:42:45;;;;;;;0.20;0.20;;;;;;;0.10;61.05;96937.44;5066760;28;20440;-57
2024/01/22 02:45:13;;;;;;;0.50;0.30;;;;;;;0.04;62.70;96942.50;5092529;28;20441;-56
2024/01/22 02:47:42;;;;;;;0.30;0.27;;;;;;;0.42;62.03;96926.13;5092882;28;20440;-56
2024/01/22 02:50:11;;;;;;;0.20;0.20;;;;;;;0.47;61.81;96910.81;5092529;28;20813;-56
2024/01/22 02:52:39;;;;;;;0.30;0.20;;;;;;;0.56;60.79;96925.44;5092490;28;20494;-55
2024/01/22 02:55:08;;;;;;;0.40;0.23;;;;;;;0.62;60.46;96924.78;5079039;28;20451;-56
2024/01/22 02:57:37;;;;;;;0.20;0.20;;;;;;;0.55;60.54;96901.16;5092427;28;20499;-55
2024/01/22 03:00:09;;;;;;;0.30;0.30;;;;;;;0.57;58.64;96930.50;5092141;28;20436;-56
2024/01/22 03:02:38;;;;;;;0.37;0.37;;;;;;;0.39;59.29;96921.25;5092043;28;20968;-56
2024/01/22 03:05:07;;;;;;;0.30;0.27;;;;;;;0.18;59.38;96940.03;5091933;28;20429;-56
2024/01/22 03:07:35;;;;;;;0.30;0.30;;;;;;;0.07;61.03;96934.34;5092724;28;21006;-57
2024/01/22 03:10:04;;;;;;;0.50;0.33;;;;;;;-0.16;60.39;96927.19;5092167;28;20462;-57
2024/01/22 03:12:33;;;;;;;0.77;0.77;;;;;;;-0.63;62.87;96941.78;5092010;28;20440;-56
2024/01/22 03:15:01;;;;;;;0.30;0.30;;;;;;;-0.37;63.65;96945.09;5066485;28;20451;-57
2024/01/22 03:17:31;;;;;;;0.20;0.20;;;;;;;-0.01;62.62;96937.78;5091134;28;20545;-57
2024/01/22 03:20:00;;;;;;;0.93;0.87;;;;;;;0.04;62.13;96945.91;5092241;28;20953;-56
2024/01/22 03:22:29;;;;;;;0.30;0.20;;;;;;;0.05;62.19;96946.75;5091515;28;20444;-56
2024/01/22 03:24:57;;;;;;;3.90;0.27;;;;;;;0.29;61.62;96944.09;5091747;28;20475;-56
2024/01/22 03:27:26;;;;;;;0.53;0.53;;;;;;;0.23;61.88;96956.00;5091531;28;20436;-56
2024/01/22 03:29:54;;;;;;;0.97;0.97;;;;;;;0.20;63.00;96932.06;5091594;28;20440;-56
2024/01/22 03:32:23;;;;;;;0.67;0.67;;;;;;;0.18;64.20;96934.03;5091318;28;20520;-57
2024/01/22 03:34:53;;;;;;;0.40;0.30;;;;;;;0.44;66.79;96947.66;5092237;28;20440;-57
2024/01/22 03:37:22;;;;;;;1.53;0.30;;;;;;;0.09;62.83;96945.41;5091635;28;20822;-57
2024/01/22 03:39:51;;;;;;;0.30;0.20;;;;;;;0.25;62.77;96951.44;5091153;28;20464;-57
2024/01/22 03:42:20;;;;;;;0.30;0.20;;;;;;;0.38;63.65;96948.34;5091456;28;20433;-57
2024/01/22 03:44:49;;;;;;;0.30;0.30;;;;;;;0.17;62.05;96948.03;5091554;28;20440;-57
2024/01/22 03:47:17;;;;;;;1.30;0.50;;;;;;;0.23;62.65;96940.34;5091467;28;20438;-56
2024/01/22 03:49:46;;;;;;;0.40;0.40;;;;;;;0.17;63.36;96953.25;5091588;28;20452;-56
2024/01/22 03:52:16;;;;;;;0.50;0.37;;;;;;;0.30;65.33;96948.34;5091153;28;20436;-56
2024/01/22 03:54:45;;;;;;;0.40;0.23;;;;;;;0.48;66.29;96952.34;5091412;28;20476;-56
2024/01/22 03:57:13;;;;;;;0.30;0.23;;;;;;;0.57;67.57;96948.78;5091622;28;20478;-57
2024/01/22 03:59:43;;;;;;;0.40;0.40;;;;;;;0.23;68.06;96890.81;5091863;28;20464;-56
2024/01/22 04:02:11;;;;;;;1.13;1.13;;;;;;;0.63;65.27;96952.50;5065190;28;20442;-57
2024/01/22 04:04:40;;;;;;;0.30;0.20;;;;;;;0.45;65.40;96920.59;5091024;28;20448;-56
2024/01/22 04:07:09;;;;;;;0.57;0.57;;;;;;;0.55;63.40;96942.91;5091771;28;20454;-57
2024/01/22 04:09:39;;;;;;;2.20;0.30;;;;;;;0.47;62.40;96945.53;5090704;28;20447;-56
2024/01/22 04:12:08;;;;;;;0.60;0.47;;;;;;;0.29;60.48;96952.72;5091219;28;20519;-57
2024/01/22 04:14:36;;;;;;;0.30;0.20;;;;;;;0.20;60.38;96968.56;5091307;28;20462;-57
2024/01/22 04:17:05;;;;;;;0.87;0.87;;;;;;;0.02;60.76;96960.91;5095345;28;20440;-56
2024/01/22 04:19:34;;;;;;;1.70;0.43;;;;;;;-0.11;61.50;96953.59;5094815;28;20464;-57
2024/01/22 04:22:03;;;;;;;0.33;0.30;;;;;;;-0.17;61.38;96964.66;5094011;28;20952;-57
2024/01/22 04:24:32;;;;;;;1.23;0.40;;;;;;;0.11;64.94;96961.72;5090860;28;20507;-57
2024/01/22 04:27:06;;;;;;;0.60;0.57;;;;;;;0.15;61.33;96973.47;5086199;28;20503;-56
2024/01/22 04:29:35;;;;;;;0.97;0.40;;;;;;;0.11;60.89;96930.41;5094803;28;20471;-57
2024/01/22 04:32:04;;;;;;;0.80;0.80;;;;;;;0.31;60.98;96963.81;5095222;28;20444;-56
2024/01/22 04:34:35;;;;;;;0.43;0.40;;;;;;;0.43;61.45;96959.06;5094412;28;20440;-56
2024/01/22 04:37:04;;;;;;;0.40;0.40;;;;;;;0.34;61.06;96979.13;5085604;28;20527;-56
2024/01/22 04:39:34;;;;;;;0.40;0.40;;;;;;;0.10;60.16;96975.75;5095180;28;20503;-57
2024/01/22 04:42:02;;;;;;;0.83;0.30;;;;;;;-0.02;60.24;96985.66;5094927;28;20440;-57
2024/01/22 04:44:32;;;;;;;0.30;0.20;;;;;;;-0.34;61.02;96978.66;5094917;28;20439;-57
2024/01/22 04:47:01;;;;;;;0.50;0.50;;;;;;;-0.97;62.23;96962.72;5094193;28;20448;-57
2024/01/22 04:49:30;;;;;;;0.57;0.57;;;;;;;-1.21;63.44;96986.00;5095049;28;20448;-57
2024/01/22 04:51:58;;;;;;;5.03;1.27;;;;;;;-1.22;63.80;96978.38;5094699;28;20440;-57
2024/01/22 04:54:27;;;;;;;3.17;0.57;;;;;;;-1.90;64.30;96923.72;5093987;28;20562;-57
2024/01/22 04:56:56;;;;;;;0.40;0.40;;;;;;;-1.76;65.49;96980.34;5094557;28;20906;-58
2024/01/22 04:59:25;;;;;;;0.50;0.50;;;;;;;-1.70;65.90;96990.13;5094249;28;20971;-58
2024/01/22 05:01:55;;;;;;;1.20;1.03;;;;;;;-1.92;65.90;96955.03;5094334;28;20432;-57
2024/01/22 05:04:24;;;;;;;0.60;0.60;;;;;;;-1.99;67.09;96989.56;5094537;28;20493;-58
2024/01/22 05:06:53;;;;;;;0.30;0.30;;;;;;;-1.99;67.17;96985.19;5093436;28;20436;-58
2024/01/22 05:09:22;;;;;;;3.53;0.70;;;;;;;-2.34;67.81;96998.22;5093971;28;20450;-58
2024/01/22 05:11:50;;;;;;;2.73;1.20;;;;;;;-2.10;67.72;97005.41;5094559;28;20523;-58
2024/01/22 05:14:19;;;;;;;0.33;0.33;;;;;;;-1.96;67.26;97004.88;5094260;28;20511;-57
2024/01/22 05:16:48;;;;;;;4.97;1.90;;;;;;;-2.98;68.43;96886.81;5094489;28;21082;-58
2024/01/22 05:19:18;;;;;;;2.53;1.80;;;;;;;-2.33;69.09;96991.25;5093987;28;20478;-57
2024/01/22 05:21:47;;;;;;;0.80;0.80;;;;;;;-2.10;68.80;97010.63;5094423;28;20475;-58
2024/01/22 05:24:15;;;;;;;1.23;0.57;;;;;;;-1.97;68.44;97008.44;5093256;28;20440;-58
2024/01/22 05:26:44;;;;;;;0.80;0.80;;;;;;;-1.92;68.01;97012.22;5092921;28;20517;-58
2024/01/22 05:29:13;;;;;;;0.60;0.60;;;;;;;-1.89;67.25;97018.06;5093067;28;20450;-58
2024/01/22 05:31:41;;;;;;;0.30;0.30;;;;;;;-1.88;67.34;97012.75;5094177;28;20448;-58
2024/01/22 05:34:10;;;;;;;1.23;1.13;;;;;;;-1.89;67.51;97011.09;5093508;28;20485;-58
2024/01/22 05:36:42;;;;;;;3.30;1.73;;;;;;;-1.95;67.08;97011.72;5093638;28;20436;-59
2024/01/22 05:39:11;;;;;;;1.20;1.10;;;;;;;-2.09;67.41;97005.25;5093497;28;20522;-58
2024/01/22 05:41:42;;;;;;;0.50;0.47;;;;;;;-2.24;67.68;96966.97;5093966;28;20436;-59
2024/01/22 05:44:10;;;;;;;0.70;0.70;;;;;;;-1.99;67.67;96982.59;5092439;28;20436;-58
2024/01/22 05:46:40;;;;;;;3.73;2.13;;;;;;;-2.13;67.67;96998.75;5092558;28;20462;-57
2024/01/22 05:49:10;;;;;;;1.17;0.97;;;;;;;-1.95;67.93;97009.13;5092817;28;20838;-58
2024/01/22 05:51:40;;;;;;;1.80;1.13;;;;;;;-1.92;67.70;97013.19;5092630;28;20436;-58
2024/01/22 05:54:09;;;;;;;3.23;2.17;;;;;;;-1.96;68.01;97018.69;5066643;28;20475;-58
2024/01/22 05:56:39;;;;;;;4.87;1.00;;;;;;;-2.12;68.17;96970.97;5093880;28;20436;-57
2024/01/22 05:59:08;;;;;;;0.73;0.73;;;;;;;-1.75;68.10;97013.16;5093339;28;20535;-58
2024/01/22 06:01:36;;;;;;;1.07;0.97;;;;;;;-1.77;67.46;97012.47;5092719;28;20447;-57
2024/01/22 06:04:06;;;;;;;1.03;1.03;;;;;;;-1.91;66.98;96974.06;5093229;28;20439;-58
2024/01/22 06:06:35;;;;;;;1.53;1.43;;;;;;;-1.62;66.97;97010.97;5084042;28;20462;-57
2024/01/22 06:09:06;;;;;;;0.87;0.87;;;;;;;-1.57;66.61;97010.53;5093360;28;20446;-58
2024/01/22 06:11:35;;;;;;;2.10;1.00;;;;;;;-1.93;65.99;96957.81;5093394;28;20491;-58
2024/01/22 06:14:04;;;;;;;1.43;1.33;;;;;;;-2.05;66.16;96969.41;5091182;28;20956;-58
2024/01/22 06:16:32;;;;;;;1.97;1.80;;;;;;;-1.74;66.29;97001.78;5086239;28;20469;-58
2024/01/22 06:19:01;;;;;;;1.87;1.77;;;;;;;-1.82;66.28;96993.91;5077266;28;20472;-58
2024/01/22 06:21:30;;;;;;;2.37;2.17;;;;;;;-1.56;65.94;97020.75;5093166;28;20472;-57
2024/01/22 06:23:59;;;;;;;2.40;1.57;;;;;;;-1.42;65.09;97016.81;5093389;28;20436;-58
2024/01/22 06:26:30;;;;;;;1.77;1.67;;;;;;;-1.35;65.14;97013.44;5092816;28;20523;-58
2024/01/22 06:29:00;;;;;;;6.30;1.83;;;;;;;-1.19;64.06;97011.88;5066564;28;20437;-58
2024/01/22 06:31:29;;;;;;;2.83;2.73;;;;;;;-1.17;64.07;96996.94;5092240;28;20460;-58
2024/01/22 06:33:57;;;;;;;4.70;2.87;;;;;;;-0.77;63.02;97008.31;5092751;28;20436;-59
2024/01/22 06:36:29;;;;;;;0.70;0.70;;;;;;;-0.29;63.19;97010.25;5092986;28;20433;-59
2024/01/22 06:38:58;;;;;;;1.40;1.33;;;;;;;0.18;60.84;97015.63;5091330;28;20521;-59
2024/01/22 06:41:26;;;;;;;0.87;0.87;;;;;;;0.57;58.78;96967.03;5092275;28;20932;-60
2024/01/22 06:43:56;;;;;;;3.93;3.37;;;;;;;1.08;58.05;97011.91;5092696;28;20545;-59
2024/01/22 06:46:25;;;;;;;2.20;2.10;;;;;;;1.16;58.75;97009.28;5092516;28;20432;-59
2024/01/22 06:48:54;;;;;;;7.37;3.63;;;;;;;1.28;58.10;97015.75;5092651;28;20456;-59
2024/01/22 06:51:23;;;;;;;2.63;2.53;;;;;;;1.38;57.24;97015.53;5092122;28;20436;-59
2024/01/22 06:54:02;;;;;;;2.70;2.37;;;;;;;0.46;57.99;96935.25;5092306;28;20464;-59
2024/01/22 06:56:31;;;;;;;3.23;1.90;;;;;;;1.59;57.55;97031.44;5092655;28;20440;-58
2024/01/22 06:59:01;;;;;;;1.33;1.20;;;;;;;0.80;58.77;97034.16;5092510;28;20472;-57
2024/01/22 07:01:30;;;;;;;0.40;0.40;;;;;;;1.48;57.48;97026.56;5092468;28;20513;-60
2024/01/22 07:03:58;;;;;;;0.97;0.93;;;;;;;0.85;57.71;96985.72;5091943;28;20443;-60
2024/01/22 07:06:27;;;;;;;0.30;0.30;;;;;;;1.40;56.87;97045.72;5092187;28;20511;-60
2024/01/22 07:08:56;;;;;;;0.73;0.73;;;;;;;1.58;55.75;97045.47;5091304;28;20839;-61
2024/01/22 07:11:25;;;;;;;1.40;1.30;;;;;;;2.47;54.81;97033.44;5090621;28;20440;-61
2024/01/22 07:13:54;;;;;;;0.50;0.40;;;;;;;3.21;55.02;96990.59;5091851;28;20534;-62
2024/01/22 07:16:24;;;;;;;0.40;0.30;;;;;;;3.42;50.88;97037.00;5091351;28;20437;-61
2024/01/22 07:18:54;;;;;;;0.40;0.40;;;;;;;3.79;50.42;97041.31;5091744;28;20523;-62
2024/01/22 07:21:23;;;;;;;1.77;0.77;;;;;;;3.98;49.73;97042.50;5091565;28;20436;-60
2024/01/22 07:23:52;;;;;;;1.63;1.20;;;;;;;3.98;49.78;97042.50;5091577;28;21102;-61
2024/01/22 07:26:21;;;;;;;0.80;0.80;;;;;;;3.73;50.75;97036.78;5061907;28;20825;-61
2024/01/22 07:28:49;;;;;;;0.97;0.67;;;;;;;4.29;49.18;96993.97;5087379;28;20787;-61
2024/01/22 07:31:20;;;;;;;0.70;0.67;;;;;;;4.96;49.75;97046.00;5091280;28;20428;-63
2024/01/22 07:33:50;;;;;;;4.30;1.10;;;;;;;4.99;49.59;97007.03;5090450;28;20443;-60
2024/01/22 07:36:19;;;;;;;3.57;1.03;;;;;;;5.23;47.54;97037.31;5091344;28;20443;-61
2024/01/22 07:38:49;;;;;;;1.03;1.00;;;;;;;5.41;48.58;96977.13;5091316;28;20463;-61
2024/01/22 07:41:18;;;;;;;0.50;0.50;;;;;;;6.46;46.83;97002.88;5067111;28;20479;-61
2024/01/22 07:43:47;;;;;;;1.27;1.17;;;;;;;6.44;45.52;96999.66;5091357;28;20436;-62
2024/01/22 07:46:16;;;;;;;1.33;0.63;;;;;;;6.48;44.35;97033.28;5090671;28;20821;-60
2024/01/22 07:48:44;;;;;;;1.97;1.77;;;;;;;6.24;44.78;97031.22;5091024;28;20436;-61
2024/01/22 07:51:14;;;;;;;1.60;1.13;;;;;;;6.56;43.25;97032.25;5091460;28;20468;-62
2024/01/22 07:53:43;;;;;;;3.23;0.60;;;;;;;7.20;42.57;97027.97;5077573;28;20541;-62
2024/01/22 07:56:12;;;;;;;8.23;2.33;;;;;;;6.84;43.77;97027.59;5091080;28;20970;-62
2024/01/22 07:58:41;;;;;;;3.03;1.43;;;;;;;6.60;44.15;97017.69;5090620;28;20472;-62
2024/01/22 08:01:10;;;;;;;5.83;1.30;;;;;;;5.23;44.48;96947.91;5090977;28;20885;-62
2024/01/22 08:03:39;;;;;;;3.73;3.43;;;;;;;6.88;43.66;97019.09;5091107;28;20497;-61
2024/01/22 08:06:08;;;;;;;1.47;1.33;;;;;;;7.27;44.00;97018.22;5090784;28;20447;-61
2024/01/22 08:08:41;;;;;;;1.73;1.63;;;;;;;7.39;42.38;97013.91;5091090;28;20872;-60
2024/01/22 08:11:09;;;;;;;4.50;1.27;;;;;;;7.30;42.91;97007.25;5090291;28;20440;-60
2024/01/22 08:13:38;;;;;;;3.63;1.50;;;;;;;6.77;43.65;97006.53;5074093;28;20428;-59
2024/01/22 08:16:07;;;;;;;7.63;1.93;;;;;;;7.13;44.49;96992.91;5091241;28;20490;-58
2024/01/22 08:18:35;;;;;;;4.47;2.07;;;;;;;7.55;42.84;96967.78;5091343;28;20494;-57
2024/01/22 08:21:04;;;;;;;2.40;2.30;;;;;;;9.36;41.68;96959.69;5091171;28;20472;-57
2024/01/22 08:23:33;;;;;;;4.57;1.57;;;;;;;9.63;39.28;96986.66;5087986;28;20433;-57
2024/01/22 08:26:03;;;;;;;2.60;1.43;;;;;;;9.55;39.75;97014.22;5064316;28;20448;-57
2024/01/22 08:28:32;;;;;;;2.60;2.50;;;;;;;9.68;39.99;97015.91;5090346;28;20485;-57
2024/01/22 08:31:00;;;;;;;2.23;2.03;;;;;;;9.23;39.70;96815.16;5089970;28;20523;-57
2024/01/22 08:33:29;;;;;;;11.70;1.40;;;;;;;10.48;37.25;96996.91;5091044;28;20444;-58
2024/01/22 08:35:58;;;;;;;1.43;1.03;;;;;;;10.27;37.51;97001.94;5090701;28;20460;-58
2024/01/22 08:38:26;;;;;;;2.57;2.47;;;;;;;8.87;38.12;96921.75;5090964;28;20440;-59
2024/01/22 08:40:55;;;;;;;1.13;0.97;;;;;;;9.87;37.85;97013.00;5090231;28;20518;-60
2024/01/22 08:43:25;;;;;;;2.00;1.90;;;;;;;9.89;38.41;96992.41;5091130;28;20447;-60
2024/01/22 08:45:54;;;;;;;2.40;1.83;;;;;;;10.33;37.52;97006.31;5090834;28;20983;-60
2024/01/22 08:48:22;;;;;;;1.43;1.33;;;;;;;10.65;36.71;96970.56;5090835;28;20451;-60
2024/01/22 08:50:51;;;;;;;1.57;0.77;;;;;;;10.97;36.21;96939.19;5091122;28;20835;-61
2024/01/22 08:53:20;;;;;;;1.90;1.80;;;;;;;11.39;36.53;96981.25;5090633;28;20903;-63
2024/01/22 08:55:48;;;;;;;1.93;1.83;;;;;;;11.86;36.17;96963.38;5091081;28;20531;-62
2024/01/22 08:58:17;;;;;;;1.03;0.93;;;;;;;11.73;34.89;96928.31;5091055;28;20444;-62
2024/01/22 09:00:47;;;;;;;2.13;0.60;;;;;;;12.46;34.98;96954.88;5090845;28;20475;-63
2024/01/22 09:03:16;;;;;;;1.40;1.30;;;;;;;12.09;34.78;96912.78;5094814;28;20436;-66
2024/01/22 09:05:44;;;;;;;5.30;2.33;;;;;;;11.34;36.31;96956.44;5094463;28;20944;-66
2024/01/22 09:08:15;;;;;;;0.60;0.50;;;;;;;11.39;36.58;96906.91;5094406;28;20432;-65
2024/01/22 09:10:43;;;;;;;1.23;1.23;;;;;;;11.38;35.78;96897.31;5093895;28;20444;-65
2024/01/22 09:13:12;;;;;;;1.90;1.77;;;;;;;11.80;36.21;96940.41;5094406;28;20514;-66
2024/01/22 09:15:40;;;;;;;1.40;1.30;;;;;;;12.19;34.58;96929.94;5094945;28;20432;-68
2024/01/22 09:18:10;;;;;;;3.30;2.40;;;;;;;12.14;34.93;96917.38;5093002;28;20939;-66
2024/01/22 09:20:39;;;;;;;11.60;3.07;;;;;;;12.03;35.21;96912.94;5094332;28;20468;-65
2024/01/22 09:23:07;;;;;;;6.00;1.40;;;;;;;12.91;35.27;96907.69;5094389;28;20440;-65
2024/01/22 09:25:36;;;;;;;1.27;1.17;;;;;;;12.23;35.21;96907.16;5093577;28;20866;-64
2024/01/22 09:28:04;;;;;;;1.90;1.60;;;;;;;12.35;34.81;96899.91;5094228;28;20497;-64
2024/01/22 09:30:33;;;;;;;1.17;1.03;;;;;;;13.13;35.33;96897.13;5093922;28;20446;-63
2024/01/22 09:33:03;;;;;;;4.40;0.90;;;;;;;13.62;33.80;96834.81;5093922;28;20489;-63
2024/01/22 09:35:33;;;;;;;1.43;1.30;;;;;;;13.36;32.28;96758.38;5093417;28;20444;-63
2024/01/22 09:38:01;;;;;;;4.77;2.70;;;;;;;14.72;46.11;96878.72;5093808;28;20436;-50
2024/01/22 09:40:33;;;;;;;1.07;0.90;;;;;;;14.70;37.44;96878.97;5093797;28;20464;-64
2024/01/22 09:43:04;;;;;;;2.00;1.90;;;;;;;14.86;32.80;96869.19;5094067;28;20445;-64
2024/01/22 09:45:34;;;;;;;4.90;2.33;;;;;;;13.98;32.17;96868.78;5092565;28;20449;-65
2024/01/22 09:48:03;;;;;;;1.37;1.27;;;;;;;14.82;31.72;96863.59;5092869;28;20993;-64
2024/01/22 09:50:34;;;;;;;2.03;1.23;;;;;;;14.17;31.91;96708.38;5093134;28;20451;-63
2024/01/22 09:53:11;;;;;;;0.87;0.87;;;;;;;15.13;30.86;96843.97;5094016;28;20476;-62
2024/01/22 09:55:41;;;;;;;17.47;2.10;;;;;;;14.88;31.18;96801.13;5067294;28;20451;-62
2024/01/22 09:58:14;;;;;;;2.00;0.83;;;;;;;15.78;31.32;96839.94;5093714;28;21161;-62
2024/01/22 10:00:45;;;;;;;4.90;0.87;;;;;;;16.06;30.74;96818.06;5093542;28;20495;-61
2024/01/22 10:03:14;;;;;;;12.03;1.57;;;;;;;15.25;29.50;96831.19;5093087;28;20444;-60
2024/01/22 10:05:45;;;;;;;1.43;0.83;;;;;;;14.72;30.18;96823.50;5093581;28;20490;-61
2024/01/22 10:08:14;;;;;;;6.47;1.43;;;;;;;15.28;30.64;96763.88;5093111;28;20859;-61
2024/01/22 10:10:43;;;;;;;2.13;1.10;;;;;;;15.76;31.14;96808.13;5093202;28;20960;-62
2024/01/22 10:13:14;;;;;;;2.83;1.13;;;;;;;14.63;30.93;96814.34;5093355;28;20432;-63
2024/01/22 10:15:43;;;;;;;3.73;1.00;;;;;;;14.66;31.64;96795.16;5093315;28;20448;-63
2024/01/22 10:18:14;;;;;;;2.23;2.13;;;;;;;14.98;31.43;96809.19;5092906;28;20432;-63
2024/01/22 10:20:46;;;;;;;1.57;1.47;;;;;;;13.39;31.67;96795.16;5092960;28;20884;-63
2024/01/22 10:23:17;;;;;;;0.70;0.70;;;;;;;13.88;31.98;96796.72;5067626;28;20444;-63
2024/01/22 10:25:45;;;;;;;0.90;0.73;;;;;;;14.28;30.47;96785.53;5092992;28;20542;-63
2024/01/22 10:28:16;;;;;;;1.50;0.90;;;;;;;13.96;30.74;96740.25;5092597;28;20865;-63
2024/01/22 10:30:47;;;;;;;0.97;0.87;;;;;;;15.21;30.00;96787.38;5092344;28;20478;-63
2024/01/22 10:33:17;;;;;;;6.27;1.37;;;;;;;15.09;30.27;96789.50;5092946;28;20452;-61
2024/01/22 10:35:48;;;;;;;0.77;0.77;;;;;;;14.69;31.31;96783.97;5092723;28;20447;-60
2024/01/22 10:38:18;;;;;;;1.90;0.70;;;;;;;15.37;29.96;96699.25;5092509;28;20442;-60
2024/01/22 10:40:48;;;;;;;1.23;0.93;;;;;;;14.76;32.27;96779.19;5093031;28;20440;-59
2024/01/22 10:43:27;;;;;;;1.87;1.77;;;;;;;14.26;32.00;96777.00;5092166;28;20523;-59
2024/01/22 10:45:58;;;;;;;5.70;1.73;;;;;;;13.80;33.17;96770.53;5066431;28;20440;-60
2024/01/22 10:48:29;;;;;;;1.53;1.43;;;;;;;13.73;33.11;96726.47;5092074;28;20440;-60
2024/01/22 10:51:12;;;;;;;1.93;1.53;;;;;;;13.09;33.03;96715.78;5093245;28;20436;-58
2024/01/22 10:53:42;;;;;;;2.27;1.07;;;;;;;14.83;32.02;96753.06;5091874;28;20480;-58
2024/01/22 10:56:18;;;;;;;3.10;2.00;;;;;;;15.42;30.20;96708.09;5086177;28;20440;-59
2024/01/22 10:58:50;;;;;;;2.13;2.03;;;;;;;15.70;30.72;96731.66;5092189;28;20500;-60
2024/01/22 11:01:24;;;;;;;0.77;0.77;;;;;;;15.55;30.85;96730.84;5092412;28;20482;-60
2024/01/22 11:03:54;;;;;;;1.77;1.67;;;;;;;14.92;31.42;96721.34;5092235;28;20530;-58
2024/01/22 11:06:30;;;;;;;0.93;0.83;;;;;;;15.04;31.85;96730.72;5092772;28;20493;-58
2024/01/22 11:09:05;;;;;;;2.47;1.27;;;;;;;15.45;31.34;96725.47;5091237;28;20970;-58
2024/01/22 11:11:38;;;;;;;2.27;0.77;;;;;;;15.71;31.67;96705.75;5092187;28;21085;-58
2024/01/22 11:14:08;;;;;;;0.70;0.63;;;;;;;15.72;30.97;96716.16;5092333;28;20443;-58
2024/01/22 11:16:37;;;;;;;1.87;1.50;;;;;;;14.90;32.52;96716.25;5091902;28;20443;-58
2024/01/22 11:19:07;;;;;;;1.17;1.07;;;;;;;15.54;32.71;96719.34;5065700;28;20523;-58
2024/01/22 11:21:39;;;;;;;2.37;1.00;;;;;;;13.74;32.71;96648.94;5092031;28;20788;-58
2024/01/22 11:24:13;;;;;;;1.03;0.93;;;;;;;15.49;32.17;96703.31;5090973;28;21017;-58
2024/01/22 11:26:45;;;;;;;1.00;0.87;;;;;;;15.59;31.35;96707.84;5090821;28;20440;-59
2024/01/22 11:29:16;;;;;;;1.17;1.03;;;;;;;16.68;30.47;96696.47;5091778;28;20428;-60
2024/01/22 11:31:45;;;;;;;5.30;3.10;;;;;;;17.14;30.53;96687.16;5091822;28;20490;-60
2024/01/22 11:34:44;;;;;;;0.60;0.60;;;;;;;17.32;29.25;96689.19;5091768;28;20436;-59
2024/01/22 11:37:33;;;;;;;0.93;0.93;;;;;;;17.30;28.72;96685.19;5091518;28;20433;-60
2024/01/22 11:40:05;;;;;;;0.50;0.40;;;;;;;16.56;29.31;96690.63;5091526;28;20925;-58
2024/01/22 11:42:34;;;;;;;2.40;1.13;;;;;;;16.40;29.64;96677.28;5091224;28;21260;-59
2024/01/22 11:45:13;;;;;;;1.13;1.03;;;;;;;16.95;29.10;96672.81;5091569;28;20993;-58
2024/01/22 11:47:43;;;;;;;1.10;1.00;;;;;;;16.74;29.13;96682.81;5068048;28;20511;-58
2024/01/22 11:50:15;;;;;;;0.80;0.77;;;;;;;16.54;29.21;96676.72;5090987;28;20436;-58